sensor_id;sensor_type;location;lat;lon;timestamp;P1;durP1;ratioP1;P2;durP2;ratioP2
48911;SDS011;34722;52.108;5.044;2023-04-24T00:20:12;1.40;;;1.10;;
48911;SDS011;34722;52.108;5.044;2023-04-24T06:01:28;7.60;;;4.72;;
48911;SDS011;34722;52.108;5.044;2023-04-24T06:04:22;20.63;;;10.75;;
48911;SDS011;34722;52.108;5.044;2023-04-24T06:10:24;34.15;;;16.13;;
48911;SDS011;34722;52.108;5.044;2023-04-24T06:12:50;29.75;;;16.67;;
48911;SDS011;34722;52.108;5.044;2023-04-24T06:15:25;35.10;;;17.50;;
48911;SDS011;34722;52.108;5.044;2023-04-24T06:24:01;36.72;;;17.42;;
48911;SDS011;34722;52.108;5.044;2023-04-24T06:26:35;39.08;;;18.63;;
48911;SDS011;34722;52.108;5.044;2023-04-24T06:30:01;38.63;;;18.98;;
48911;SDS011;34722;52.108;5.044;2023-04-24T06:33:21;37.72;;;17.88;;
48911;SDS011;34722;52.108;5.044;2023-04-24T06:35:53;40.30;;;17.75;;
48911;SDS011;34722;52.108;5.044;2023-04-24T06:38:29;39.72;;;17.52;;
48911;SDS011;34722;52.108;5.044;2023-04-24T06:40:56;39.97;;;18.50;;
48911;SDS011;34722;52.108;5.044;2023-04-24T06:43:36;42.03;;;18.55;;
48911;SDS011;34722;52.108;5.044;2023-04-24T06:52:59;30.33;;;13.90;;
48911;SDS011;34722;52.108;5.044;2023-04-24T07:02:42;34.28;;;14.35;;
48911;SDS011;34722;52.108;5.044;2023-04-24T07:10:29;36.78;;;13.43;;
48911;SDS011;34722;52.108;5.044;2023-04-24T07:12:59;32.15;;;11.48;;
48911;SDS011;34722;52.108;5.044;2023-04-24T07:15:24;38.35;;;13.05;;
48911;SDS011;34722;52.108;5.044;2023-04-24T07:17:52;32.40;;;11.90;;
48911;SDS011;34722;52.108;5.044;2023-04-24T07:20:18;37.67;;;11.23;;
48911;SDS011;34722;52.108;5.044;2023-04-24T07:22:44;34.60;;;9.75;;
48911;SDS011;34722;52.108;5.044;2023-04-24T07:25:10;24.98;;;10.90;;
48911;SDS011;34722;52.108;5.044;2023-04-24T07:27:35;44.13;;;13.20;;
48911;SDS011;34722;52.108;5.044;2023-04-24T07:30:02;28.73;;;9.70;;
48911;SDS011;34722;52.108;5.044;2023-04-24T07:32:29;37.22;;;12.70;;
48911;SDS011;34722;52.108;5.044;2023-04-24T07:34:55;30.60;;;11.32;;
48911;SDS011;34722;52.108;5.044;2023-04-24T07:37:20;30.67;;;10.35;;
48911;SDS011;34722;52.108;5.044;2023-04-24T07:39:49;34.00;;;10.65;;
48911;SDS011;34722;52.108;5.044;2023-04-24T07:42:15;35.45;;;11.77;;
48911;SDS011;34722;52.108;5.044;2023-04-24T07:44:40;29.30;;;9.75;;
48911;SDS011;34722;52.108;5.044;2023-04-24T07:47:06;39.28;;;11.38;;
48911;SDS011;34722;52.108;5.044;2023-04-24T07:49:50;29.77;;;8.23;;
48911;SDS011;34722;52.108;5.044;2023-04-24T07:52:44;35.75;;;7.82;;
48911;SDS011;34722;52.108;5.044;2023-04-24T07:55:10;34.65;;;7.93;;
48911;SDS011;34722;52.108;5.044;2023-04-24T07:57:36;28.08;;;7.18;;
48911;SDS011;34722;52.108;5.044;2023-04-24T08:00:02;21.63;;;5.32;;
48911;SDS011;34722;52.108;5.044;2023-04-24T08:02:29;24.08;;;6.65;;
48911;SDS011;34722;52.108;5.044;2023-04-24T08:05:03;23.50;;;6.38;;
48911;SDS011;34722;52.108;5.044;2023-04-24T08:07:39;23.15;;;4.65;;
48911;SDS011;34722;52.108;5.044;2023-04-24T08:13:03;20.48;;;4.70;;
48911;SDS011;34722;52.108;5.044;2023-04-24T08:15:39;18.73;;;3.80;;
48911;SDS011;34722;52.108;5.044;2023-04-24T08:18:08;15.15;;;3.35;;
48911;SDS011;34722;52.108;5.044;2023-04-24T08:20:51;12.25;;;3.33;;
48911;SDS011;34722;52.108;5.044;2023-04-24T08:23:30;23.45;;;5.07;;
48911;SDS011;34722;52.108;5.044;2023-04-24T08:25:56;16.08;;;3.40;;
48911;SDS011;34722;52.108;5.044;2023-04-24T08:28:22;12.02;;;5.05;;
48911;SDS011;34722;52.108;5.044;2023-04-24T08:30:48;11.05;;;3.35;;
48911;SDS011;34722;52.108;5.044;2023-04-24T08:33:19;10.68;;;3.88;;
48911;SDS011;34722;52.108;5.044;2023-04-24T08:35:45;17.95;;;4.85;;
48911;SDS011;34722;52.108;5.044;2023-04-24T08:38:25;14.75;;;4.25;;
48911;SDS011;34722;52.108;5.044;2023-04-24T08:40:58;16.65;;;3.67;;
48911;SDS011;34722;52.108;5.044;2023-04-24T08:43:45;13.80;;;3.63;;
48911;SDS011;34722;52.108;5.044;2023-04-24T08:46:12;15.82;;;4.43;;
48911;SDS011;34722;52.108;5.044;2023-04-24T08:48:38;19.13;;;5.20;;
48911;SDS011;34722;52.108;5.044;2023-04-24T08:51:06;19.65;;;3.83;;
48911;SDS011;34722;52.108;5.044;2023-04-24T08:53:33;18.25;;;4.20;;
48911;SDS011;34722;52.108;5.044;2023-04-24T08:56:00;13.95;;;4.93;;
48911;SDS011;34722;52.108;5.044;2023-04-24T09:05:46;12.48;;;3.47;;
48911;SDS011;34722;52.108;5.044;2023-04-24T09:08:19;11.80;;;3.58;;
48911;SDS011;34722;52.108;5.044;2023-04-24T09:10:54;16.02;;;3.58;;
48911;SDS011;34722;52.108;5.044;2023-04-24T09:13:23;11.07;;;3.25;;
48911;SDS011;34722;52.108;5.044;2023-04-24T09:15:50;11.98;;;3.58;;
48911;SDS011;34722;52.108;5.044;2023-04-24T09:18:16;15.07;;;3.63;;
48911;SDS011;34722;52.108;5.044;2023-04-24T09:21:02;8.82;;;3.05;;
48911;SDS011;34722;52.108;5.044;2023-04-24T09:23:32;7.95;;;2.65;;
48911;SDS011;34722;52.108;5.044;2023-04-24T09:25:58;7.75;;;3.20;;
48911;SDS011;34722;52.108;5.044;2023-04-24T09:28:31;12.75;;;3.20;;
48911;SDS011;34722;52.108;5.044;2023-04-24T09:31:16;8.23;;;2.75;;
48911;SDS011;34722;52.108;5.044;2023-04-24T09:36:52;5.70;;;2.88;;
48911;SDS011;34722;52.108;5.044;2023-04-24T09:39:25;11.40;;;2.80;;
48911;SDS011;34722;52.108;5.044;2023-04-24T09:41:54;5.22;;;2.78;;
48911;SDS011;34722;52.108;5.044;2023-04-24T09:44:30;6.50;;;2.75;;
48911;SDS011;34722;52.108;5.044;2023-04-24T09:47:07;7.75;;;3.13;;
48911;SDS011;34722;52.108;5.044;2023-04-24T09:49:37;8.20;;;2.83;;
48911;SDS011;34722;52.108;5.044;2023-04-24T09:54:32;7.30;;;2.30;;
48911;SDS011;34722;52.108;5.044;2023-04-24T09:56:58;6.07;;;2.75;;
48911;SDS011;34722;52.108;5.044;2023-04-24T09:59:25;10.52;;;2.83;;
48911;SDS011;34722;52.108;5.044;2023-04-24T10:01:51;8.30;;;2.38;;
48911;SDS011;34722;52.108;5.044;2023-04-24T10:04:18;7.45;;;1.85;;
48911;SDS011;34722;52.108;5.044;2023-04-24T10:06:46;4.63;;;1.25;;
48911;SDS011;34722;52.108;5.044;2023-04-24T10:09:13;4.47;;;1.23;;
48911;SDS011;34722;52.108;5.044;2023-04-24T10:11:44;2.92;;;1.48;;
48911;SDS011;34722;52.108;5.044;2023-04-24T10:14:15;2.40;;;1.70;;
48911;SDS011;34722;52.108;5.044;2023-04-24T10:16:43;4.75;;;1.67;;
48911;SDS011;34722;52.108;5.044;2023-04-24T10:19:18;5.65;;;1.80;;
48911;SDS011;34722;52.108;5.044;2023-04-24T10:21:48;7.43;;;1.75;;
48911;SDS011;34722;52.108;5.044;2023-04-24T10:24:16;6.80;;;1.83;;
48911;SDS011;34722;52.108;5.044;2023-04-24T10:26:43;9.43;;;2.88;;
48911;SDS011;34722;52.108;5.044;2023-04-24T10:29:14;6.88;;;1.80;;
48911;SDS011;34722;52.108;5.044;2023-04-24T10:31:42;4.13;;;1.38;;
48911;SDS011;34722;52.108;5.044;2023-04-24T10:34:12;2.55;;;1.48;;
48911;SDS011;34722;52.108;5.044;2023-04-24T10:39:26;5.38;;;1.95;;
48911;SDS011;34722;52.108;5.044;2023-04-24T10:41:52;7.40;;;2.10;;
48911;SDS011;34722;52.108;5.044;2023-04-24T10:44:22;4.80;;;2.50;;
48911;SDS011;34722;52.108;5.044;2023-04-24T10:46:53;2.38;;;1.90;;
48911;SDS011;34722;52.108;5.044;2023-04-24T10:49:30;7.00;;;2.28;;
48911;SDS011;34722;52.108;5.044;2023-04-24T10:52:00;3.22;;;2.30;;
48911;SDS011;34722;52.108;5.044;2023-04-24T10:54:36;3.05;;;2.20;;
48911;SDS011;34722;52.108;5.044;2023-04-24T10:59:47;5.47;;;2.40;;
48911;SDS011;34722;52.108;5.044;2023-04-24T11:02:14;7.63;;;2.30;;
48911;SDS011;34722;52.108;5.044;2023-04-24T11:04:40;10.45;;;2.50;;
48911;SDS011;34722;52.108;5.044;2023-04-24T11:07:08;6.57;;;2.88;;
48911;SDS011;34722;52.108;5.044;2023-04-24T11:09:35;6.38;;;1.98;;
48911;SDS011;34722;52.108;5.044;2023-04-24T11:12:05;7.75;;;2.58;;
48911;SDS011;34722;52.108;5.044;2023-04-24T11:20:05;2.33;;;1.30;;
48911;SDS011;34722;52.108;5.044;2023-04-24T11:22:40;6.18;;;3.15;;
48911;SDS011;34722;52.108;5.044;2023-04-24T11:25:06;6.53;;;1.20;;
48911;SDS011;34722;52.108;5.044;2023-04-24T11:27:39;6.55;;;1.50;;
48911;SDS011;34722;52.108;5.044;2023-04-24T11:30:09;3.65;;;1.88;;
48911;SDS011;34722;52.108;5.044;2023-04-24T11:32:42;2.30;;;1.67;;
48911;SDS011;34722;52.108;5.044;2023-04-24T11:37:42;4.38;;;2.00;;
48911;SDS011;34722;52.108;5.044;2023-04-24T11:40:18;3.60;;;2.03;;
48911;SDS011;34722;52.108;5.044;2023-04-24T11:42:56;5.53;;;2.08;;
48911;SDS011;34722;52.108;5.044;2023-04-24T11:45:26;3.10;;;1.85;;
48911;SDS011;34722;52.108;5.044;2023-04-24T11:47:53;8.38;;;2.35;;
48911;SDS011;34722;52.108;5.044;2023-04-24T11:50:20;10.85;;;2.33;;
48911;SDS011;34722;52.108;5.044;2023-04-24T11:52:50;5.78;;;2.20;;
48911;SDS011;34722;52.108;5.044;2023-04-24T11:55:29;8.52;;;2.35;;
48911;SDS011;34722;52.108;5.044;2023-04-24T11:57:56;7.95;;;3.10;;
48911;SDS011;34722;52.108;5.044;2023-04-24T12:00:27;4.78;;;2.38;;
48911;SDS011;34722;52.108;5.044;2023-04-24T12:03:10;7.03;;;1.98;;
48911;SDS011;34722;52.108;5.044;2023-04-24T12:05:36;6.63;;;2.60;;
48911;SDS011;34722;52.108;5.044;2023-04-24T12:08:03;4.13;;;2.30;;
48911;SDS011;34722;52.108;5.044;2023-04-24T12:10:30;7.38;;;2.80;;
48911;SDS011;34722;52.108;5.044;2023-04-24T12:12:57;6.22;;;3.38;;
48911;SDS011;34722;52.108;5.044;2023-04-24T12:15:24;7.43;;;3.00;;
48911;SDS011;34722;52.108;5.044;2023-04-24T12:17:51;8.43;;;3.42;;
48911;SDS011;34722;52.108;5.044;2023-04-24T12:20:29;7.50;;;2.75;;
48911;SDS011;34722;52.108;5.044;2023-04-24T12:22:59;7.10;;;2.50;;
48911;SDS011;34722;52.108;5.044;2023-04-24T12:25:27;8.60;;;2.88;;
48911;SDS011;34722;52.108;5.044;2023-04-24T12:30:29;10.93;;;4.85;;
48911;SDS011;34722;52.108;5.044;2023-04-24T12:32:59;6.63;;;2.42;;
48911;SDS011;34722;52.108;5.044;2023-04-24T12:35:29;9.80;;;2.95;;
48911;SDS011;34722;52.108;5.044;2023-04-24T12:38:08;9.82;;;2.85;;
48911;SDS011;34722;52.108;5.044;2023-04-24T12:40:35;13.13;;;3.65;;
48911;SDS011;34722;52.108;5.044;2023-04-24T12:43:01;8.20;;;2.83;;
48911;SDS011;34722;52.108;5.044;2023-04-24T12:45:26;9.00;;;3.35;;
48911;SDS011;34722;52.108;5.044;2023-04-24T12:47:53;18.60;;;3.88;;
48911;SDS011;34722;52.108;5.044;2023-04-24T12:50:21;11.32;;;3.47;;
48911;SDS011;34722;52.108;5.044;2023-04-24T12:52:47;8.07;;;3.55;;
48911;SDS011;34722;52.108;5.044;2023-04-24T12:55:13;15.63;;;3.60;;
48911;SDS011;34722;52.108;5.044;2023-04-24T12:57:39;8.10;;;3.58;;
48911;SDS011;34722;52.108;5.044;2023-04-24T13:00:05;14.23;;;3.55;;
48911;SDS011;34722;52.108;5.044;2023-04-24T13:02:32;11.27;;;3.63;;
48911;SDS011;34722;52.108;5.044;2023-04-24T13:04:59;26.38;;;5.05;;
48911;SDS011;34722;52.108;5.044;2023-04-24T13:10:00;13.63;;;3.95;;
48911;SDS011;34722;52.108;5.044;2023-04-24T13:12:26;13.95;;;5.63;;
48911;SDS011;34722;52.108;5.044;2023-04-24T13:14:52;8.25;;;3.72;;
48911;SDS011;34722;52.108;5.044;2023-04-24T13:17:41;12.93;;;3.78;;
48911;SDS011;34722;52.108;5.044;2023-04-24T13:20:07;14.77;;;4.38;;
48911;SDS011;34722;52.108;5.044;2023-04-24T13:22:36;13.98;;;5.22;;
48911;SDS011;34722;52.108;5.044;2023-04-24T13:25:10;10.68;;;4.03;;
48911;SDS011;34722;52.108;5.044;2023-04-24T13:27:57;9.77;;;3.80;;
48911;SDS011;34722;52.108;5.044;2023-04-24T13:30:25;12.25;;;4.47;;
48911;SDS011;34722;52.108;5.044;2023-04-24T13:32:51;26.65;;;5.60;;
48911;SDS011;34722;52.108;5.044;2023-04-24T13:35:17;12.43;;;4.18;;
48911;SDS011;34722;52.108;5.044;2023-04-24T13:37:42;12.50;;;4.38;;
48911;SDS011;34722;52.108;5.044;2023-04-24T13:40:09;12.80;;;3.80;;
48911;SDS011;34722;52.108;5.044;2023-04-24T13:42:35;11.55;;;4.20;;
48911;SDS011;34722;52.108;5.044;2023-04-24T13:45:04;14.10;;;5.65;;
48911;SDS011;34722;52.108;5.044;2023-04-24T13:47:35;10.00;;;4.07;;
48911;SDS011;34722;52.108;5.044;2023-04-24T13:53:16;14.40;;;4.68;;
48911;SDS011;34722;52.108;5.044;2023-04-24T13:55:42;18.50;;;5.43;;
48911;SDS011;34722;52.108;5.044;2023-04-24T14:00:39;10.23;;;4.22;;
48911;SDS011;34722;52.108;5.044;2023-04-24T14:03:06;16.02;;;4.80;;
48911;SDS011;34722;52.108;5.044;2023-04-24T14:05:36;24.00;;;5.45;;
48911;SDS011;34722;52.108;5.044;2023-04-24T14:08:02;16.60;;;5.57;;
48911;SDS011;34722;52.108;5.044;2023-04-24T14:10:29;13.48;;;4.32;;
48911;SDS011;34722;52.108;5.044;2023-04-24T14:12:56;10.88;;;4.40;;
48911;SDS011;34722;52.108;5.044;2023-04-24T14:15:23;9.50;;;4.40;;
48911;SDS011;34722;52.108;5.044;2023-04-24T14:17:49;11.48;;;4.10;;
48911;SDS011;34722;52.108;5.044;2023-04-24T14:20:19;15.10;;;5.10;;
48911;SDS011;34722;52.108;5.044;2023-04-24T14:56:39;17.58;;;5.15;;
48911;SDS011;34722;52.108;5.044;2023-04-24T14:59:05;16.42;;;5.97;;
48911;SDS011;34722;52.108;5.044;2023-04-24T15:01:32;11.13;;;4.18;;
48911;SDS011;34722;52.108;5.044;2023-04-24T15:03:58;16.48;;;4.53;;
48911;SDS011;34722;52.108;5.044;2023-04-24T15:06:26;17.30;;;4.93;;
48911;SDS011;34722;52.108;5.044;2023-04-24T15:08:55;22.33;;;5.65;;
48911;SDS011;34722;52.108;5.044;2023-04-24T15:11:33;17.52;;;5.57;;
48911;SDS011;34722;52.108;5.044;2023-04-24T15:14:00;15.10;;;4.40;;
48911;SDS011;34722;52.108;5.044;2023-04-24T15:16:46;17.17;;;5.63;;
48911;SDS011;34722;52.108;5.044;2023-04-24T15:19:20;9.65;;;4.35;;
48911;SDS011;34722;52.108;5.044;2023-04-24T15:21:50;10.05;;;4.32;;
48911;SDS011;34722;52.108;5.044;2023-04-24T15:24:16;20.63;;;5.53;;
48911;SDS011;34722;52.108;5.044;2023-04-24T15:26:42;23.80;;;5.00;;
48911;SDS011;34722;52.108;5.044;2023-04-24T15:29:11;15.30;;;4.68;;
48911;SDS011;34722;52.108;5.044;2023-04-24T15:31:39;15.05;;;4.88;;
48911;SDS011;34722;52.108;5.044;2023-04-24T15:34:05;13.15;;;5.70;;
48911;SDS011;34722;52.108;5.044;2023-04-24T15:36:31;15.38;;;5.05;;
48911;SDS011;34722;52.108;5.044;2023-04-24T15:38:57;12.95;;;4.15;;
48911;SDS011;34722;52.108;5.044;2023-04-24T15:41:22;19.48;;;5.38;;
48911;SDS011;34722;52.108;5.044;2023-04-24T15:43:48;12.98;;;3.83;;
48911;SDS011;34722;52.108;5.044;2023-04-24T15:46:14;19.13;;;5.07;;
48911;SDS011;34722;52.108;5.044;2023-04-24T15:48:41;14.68;;;4.65;;
48911;SDS011;34722;52.108;5.044;2023-04-24T15:51:07;10.07;;;4.50;;
48911;SDS011;34722;52.108;5.044;2023-04-24T15:53:33;8.90;;;4.15;;
48911;SDS011;34722;52.108;5.044;2023-04-24T15:55:58;10.52;;;4.60;;
48911;SDS011;34722;52.108;5.044;2023-04-24T15:58:24;15.82;;;4.70;;
48911;SDS011;34722;52.108;5.044;2023-04-24T16:00:51;22.35;;;4.80;;
48911;SDS011;34722;52.108;5.044;2023-04-24T16:03:18;15.23;;;4.80;;
48911;SDS011;34722;52.108;5.044;2023-04-24T16:05:44;9.63;;;4.20;;
48911;SDS011;34722;52.108;5.044;2023-04-24T16:08:10;13.95;;;4.88;;
48911;SDS011;34722;52.108;5.044;2023-04-24T16:10:36;15.93;;;4.35;;
48911;SDS011;34722;52.108;5.044;2023-04-24T16:13:02;12.68;;;4.50;;
48911;SDS011;34722;52.108;5.044;2023-04-24T16:15:29;14.68;;;6.13;;
48911;SDS011;34722;52.108;5.044;2023-04-24T16:17:55;15.70;;;4.50;;
48911;SDS011;34722;52.108;5.044;2023-04-24T16:20:21;18.40;;;5.38;;
48911;SDS011;34722;52.108;5.044;2023-04-24T16:22:47;19.83;;;5.28;;
48911;SDS011;34722;52.108;5.044;2023-04-24T16:25:15;14.40;;;4.82;;
48911;SDS011;34722;52.108;5.044;2023-04-24T16:27:40;10.02;;;3.85;;
48911;SDS011;34722;52.108;5.044;2023-04-24T16:30:08;20.27;;;5.15;;
48911;SDS011;34722;52.108;5.044;2023-04-24T16:32:36;11.38;;;4.22;;
48911;SDS011;34722;52.108;5.044;2023-04-24T16:35:02;14.40;;;4.78;;
48911;SDS011;34722;52.108;5.044;2023-04-24T16:37:28;22.30;;;5.43;;
48911;SDS011;34722;52.108;5.044;2023-04-24T16:39:55;12.00;;;4.82;;
48911;SDS011;34722;52.108;5.044;2023-04-24T16:42:21;17.75;;;5.25;;
48911;SDS011;34722;52.108;5.044;2023-04-24T16:44:47;12.50;;;4.78;;
48911;SDS011;34722;52.108;5.044;2023-04-24T16:47:13;19.05;;;5.22;;
48911;SDS011;34722;52.108;5.044;2023-04-24T16:49:39;19.33;;;4.85;;
48911;SDS011;34722;52.108;5.044;2023-04-24T16:52:05;20.10;;;5.70;;
48911;SDS011;34722;52.108;5.044;2023-04-24T16:54:32;19.95;;;6.10;;
48911;SDS011;34722;52.108;5.044;2023-04-24T16:57:01;15.95;;;5.40;;
48911;SDS011;34722;52.108;5.044;2023-04-24T16:59:27;23.80;;;8.07;;
48911;SDS011;34722;52.108;5.044;2023-04-24T17:01:54;21.08;;;5.60;;
48911;SDS011;34722;52.108;5.044;2023-04-24T17:04:20;16.30;;;5.95;;
48911;SDS011;34722;52.108;5.044;2023-04-24T17:06:46;22.73;;;6.60;;
48911;SDS011;34722;52.108;5.044;2023-04-24T17:09:12;20.67;;;5.25;;
48911;SDS011;34722;52.108;5.044;2023-04-24T17:11:39;24.50;;;5.90;;
48911;SDS011;34722;52.108;5.044;2023-04-24T17:14:06;18.33;;;6.03;;
48911;SDS011;34722;52.108;5.044;2023-04-24T17:16:35;19.38;;;5.07;;
48911;SDS011;34722;52.108;5.044;2023-04-24T17:19:10;16.02;;;5.03;;
48911;SDS011;34722;52.108;5.044;2023-04-24T17:21:36;18.95;;;4.53;;
48911;SDS011;34722;52.108;5.044;2023-04-24T19:09:48;7.75;;;2.35;;
48911;SDS011;34722;52.108;5.044;2023-04-24T19:12:17;7.70;;;2.13;;
48911;SDS011;34722;52.108;5.044;2023-04-24T19:14:44;7.90;;;2.35;;
48911;SDS011;34722;52.108;5.044;2023-04-24T19:17:10;10.23;;;1.92;;
48911;SDS011;34722;52.108;5.044;2023-04-24T19:19:42;6.00;;;1.38;;
48911;SDS011;34722;52.108;5.044;2023-04-24T19:22:08;2.45;;;1.73;;
48911;SDS011;34722;52.108;5.044;2023-04-24T19:24:34;10.02;;;2.30;;
48911;SDS011;34722;52.108;5.044;2023-04-24T19:27:00;5.15;;;1.60;;
48911;SDS011;34722;52.108;5.044;2023-04-24T19:29:26;7.97;;;1.60;;
48911;SDS011;34722;52.108;5.044;2023-04-24T19:31:51;8.50;;;1.55;;
48911;SDS011;34722;52.108;5.044;2023-04-24T19:34:27;3.17;;;1.45;;
48911;SDS011;34722;52.108;5.044;2023-04-24T19:36:54;7.90;;;1.83;;
48911;SDS011;34722;52.108;5.044;2023-04-24T19:39:20;13.23;;;2.40;;
48911;SDS011;34722;52.108;5.044;2023-04-24T19:41:46;3.53;;;1.90;;
48911;SDS011;34722;52.108;5.044;2023-04-24T19:44:12;10.07;;;2.25;;
48911;SDS011;34722;52.108;5.044;2023-04-24T19:49:18;6.70;;;2.45;;
48911;SDS011;34722;52.108;5.044;2023-04-24T19:51:44;7.95;;;2.38;;
48911;SDS011;34722;52.108;5.044;2023-04-24T19:54:10;9.75;;;2.42;;
48911;SDS011;34722;52.108;5.044;2023-04-24T19:56:36;3.80;;;2.58;;
48911;SDS011;34722;52.108;5.044;2023-04-24T19:59:02;9.48;;;2.33;;
48911;SDS011;34722;52.108;5.044;2023-04-24T20:01:36;9.88;;;3.80;;
48911;SDS011;34722;52.108;5.044;2023-04-24T20:04:11;9.18;;;2.75;;
48911;SDS011;34722;52.108;5.044;2023-04-24T20:06:48;12.90;;;4.03;;
48911;SDS011;34722;52.108;5.044;2023-04-24T20:09:16;9.00;;;2.72;;
48911;SDS011;34722;52.108;5.044;2023-04-24T20:11:42;10.27;;;2.63;;
48911;SDS011;34722;52.108;5.044;2023-04-24T20:14:10;9.65;;;2.80;;
48911;SDS011;34722;52.108;5.044;2023-04-24T20:16:36;24.83;;;5.15;;
48911;SDS011;34722;52.108;5.044;2023-04-24T20:19:02;13.85;;;2.83;;
48911;SDS011;34722;52.108;5.044;2023-04-24T20:21:28;9.57;;;2.22;;
48911;SDS011;34722;52.108;5.044;2023-04-24T20:24:03;23.17;;;4.47;;
48911;SDS011;34722;52.108;5.044;2023-04-24T20:26:40;7.70;;;2.80;;
48911;SDS011;34722;52.108;5.044;2023-04-24T20:29:06;8.63;;;3.17;;
48911;SDS011;34722;52.108;5.044;2023-04-24T20:31:35;7.93;;;3.10;;
48911;SDS011;34722;52.108;5.044;2023-04-24T20:34:01;8.52;;;2.40;;
48911;SDS011;34722;52.108;5.044;2023-04-24T20:36:27;10.75;;;2.63;;
48911;SDS011;34722;52.108;5.044;2023-04-24T20:38:56;6.45;;;2.20;;
48911;SDS011;34722;52.108;5.044;2023-04-24T20:41:22;8.27;;;3.17;;
48911;SDS011;34722;52.108;5.044;2023-04-24T20:43:48;8.48;;;2.83;;
48911;SDS011;34722;52.108;5.044;2023-04-24T20:46:14;10.68;;;2.38;;
48911;SDS011;34722;52.108;5.044;2023-04-24T20:48:41;8.85;;;2.10;;
48911;SDS011;34722;52.108;5.044;2023-04-24T20:51:15;13.75;;;3.08;;
48911;SDS011;34722;52.108;5.044;2023-04-24T20:53:41;3.05;;;1.63;;
48911;SDS011;34722;52.108;5.044;2023-04-24T20:56:07;3.95;;;1.88;;
48911;SDS011;34722;52.108;5.044;2023-04-24T20:58:37;9.77;;;2.45;;
48911;SDS011;34722;52.108;5.044;2023-04-24T21:01:03;10.95;;;2.70;;
48911;SDS011;34722;52.108;5.044;2023-04-24T21:03:29;13.55;;;4.35;;
48911;SDS011;34722;52.108;5.044;2023-04-24T21:05:55;9.45;;;2.75;;
48911;SDS011;34722;52.108;5.044;2023-04-24T21:08:21;6.68;;;2.40;;
48911;SDS011;34722;52.108;5.044;2023-04-24T21:10:46;8.27;;;2.20;;
48911;SDS011;34722;52.108;5.044;2023-04-24T21:13:15;8.93;;;2.50;;
48911;SDS011;34722;52.108;5.044;2023-04-24T21:15:41;8.18;;;2.47;;
48911;SDS011;34722;52.108;5.044;2023-04-24T21:18:07;6.75;;;2.28;;
48911;SDS011;34722;52.108;5.044;2023-04-24T21:20:36;7.75;;;3.10;;
48911;SDS011;34722;52.108;5.044;2023-04-24T21:23:02;9.60;;;2.58;;
48911;SDS011;34722;52.108;5.044;2023-04-24T21:25:29;9.60;;;1.85;;
48911;SDS011;34722;52.108;5.044;2023-04-24T21:27:56;9.18;;;2.50;;
48911;SDS011;34722;52.108;5.044;2023-04-24T21:30:23;9.23;;;3.13;;
48911;SDS011;34722;52.108;5.044;2023-04-24T21:32:49;6.97;;;2.17;;
48911;SDS011;34722;52.108;5.044;2023-04-24T21:35:16;12.25;;;3.05;;
48911;SDS011;34722;52.108;5.044;2023-04-24T21:37:42;11.10;;;2.40;;
48911;SDS011;34722;52.108;5.044;2023-04-24T21:40:08;14.55;;;3.00;;
48911;SDS011;34722;52.108;5.044;2023-04-24T21:42:37;10.32;;;3.08;;
48911;SDS011;34722;52.108;5.044;2023-04-24T21:45:06;12.93;;;3.15;;
48911;SDS011;34722;52.108;5.044;2023-04-24T21:47:46;11.32;;;3.05;;
48911;SDS011;34722;52.108;5.044;2023-04-24T21:50:12;16.88;;;4.82;;
48911;SDS011;34722;52.108;5.044;2023-04-24T21:52:38;21.35;;;5.90;;
48911;SDS011;34722;52.108;5.044;2023-04-24T21:55:06;16.90;;;4.40;;
48911;SDS011;34722;52.108;5.044;2023-04-24T21:57:38;11.93;;;5.07;;
48911;SDS011;34722;52.108;5.044;2023-04-24T22:00:05;23.00;;;4.60;;
48911;SDS011;34722;52.108;5.044;2023-04-24T22:02:34;16.17;;;4.93;;
48911;SDS011;34722;52.108;5.044;2023-04-24T22:05:00;33.67;;;6.32;;
48911;SDS011;34722;52.108;5.044;2023-04-24T22:07:28;14.80;;;4.45;;
48911;SDS011;34722;52.108;5.044;2023-04-24T22:09:54;16.88;;;5.13;;
48911;SDS011;34722;52.108;5.044;2023-04-24T22:12:20;12.30;;;4.70;;
48911;SDS011;34722;52.108;5.044;2023-04-24T22:14:46;19.45;;;4.78;;
48911;SDS011;34722;52.108;5.044;2023-04-24T22:17:11;17.67;;;4.90;;
48911;SDS011;34722;52.108;5.044;2023-04-24T22:19:39;22.13;;;4.47;;
48911;SDS011;34722;52.108;5.044;2023-04-24T22:22:07;14.75;;;4.35;;
48911;SDS011;34722;52.108;5.044;2023-04-24T22:24:43;25.05;;;5.05;;
48911;SDS011;34722;52.108;5.044;2023-04-24T22:27:32;18.10;;;4.75;;
48911;SDS011;34722;52.108;5.044;2023-04-24T22:29:59;17.30;;;4.47;;
48911;SDS011;34722;52.108;5.044;2023-04-24T22:32:43;17.45;;;4.68;;
48911;SDS011;34722;52.108;5.044;2023-04-24T22:35:12;19.92;;;5.35;;
48911;SDS011;34722;52.108;5.044;2023-04-24T22:37:38;14.82;;;4.75;;
48911;SDS011;34722;52.108;5.044;2023-04-24T22:40:04;17.48;;;4.50;;
48911;SDS011;34722;52.108;5.044;2023-04-24T22:42:32;18.90;;;4.97;;
48911;SDS011;34722;52.108;5.044;2023-04-24T22:44:58;23.42;;;4.88;;
48911;SDS011;34722;52.108;5.044;2023-04-24T22:47:28;16.35;;;5.70;;
48911;SDS011;34722;52.108;5.044;2023-04-24T22:49:55;20.85;;;4.65;;
48911;SDS011;34722;52.108;5.044;2023-04-24T22:52:24;34.42;;;5.45;;
48911;SDS011;34722;52.108;5.044;2023-04-24T22:55:10;19.38;;;6.53;;
48911;SDS011;34722;52.108;5.044;2023-04-24T22:58:10;23.05;;;8.27;;
48911;SDS011;34722;52.108;5.044;2023-04-24T23:00:39;18.75;;;5.97;;
48911;SDS011;34722;52.108;5.044;2023-04-24T23:03:08;16.40;;;5.00;;
48911;SDS011;34722;52.108;5.044;2023-04-24T23:05:35;21.33;;;5.00;;
48911;SDS011;34722;52.108;5.044;2023-04-24T23:08:01;30.08;;;5.93;;
48911;SDS011;34722;52.108;5.044;2023-04-24T23:10:29;24.67;;;6.50;;
48911;SDS011;34722;52.108;5.044;2023-04-24T23:12:55;14.75;;;5.15;;
48911;SDS011;34722;52.108;5.044;2023-04-24T23:15:21;27.13;;;6.43;;
48911;SDS011;34722;52.108;5.044;2023-04-24T23:17:47;25.52;;;6.28;;
48911;SDS011;34722;52.108;5.044;2023-04-24T23:20:13;24.42;;;7.78;;
48911;SDS011;34722;52.108;5.044;2023-04-24T23:22:40;17.40;;;5.35;;
48911;SDS011;34722;52.108;5.044;2023-04-24T23:25:06;26.42;;;6.78;;
48911;SDS011;34722;52.108;5.044;2023-04-24T23:27:36;36.80;;;6.95;;
48911;SDS011;34722;52.108;5.044;2023-04-24T23:30:02;22.55;;;5.57;;
48911;SDS011;34722;52.108;5.044;2023-04-24T23:32:30;35.08;;;6.97;;
48911;SDS011;34722;52.108;5.044;2023-04-24T23:34:56;20.88;;;6.53;;
48911;SDS011;34722;52.108;5.044;2023-04-24T23:37:22;28.35;;;7.10;;
48911;SDS011;34722;52.108;5.044;2023-04-24T23:39:48;20.05;;;6.80;;
48911;SDS011;34722;52.108;5.044;2023-04-24T23:42:14;27.35;;;7.13;;
48911;SDS011;34722;52.108;5.044;2023-04-24T23:44:40;29.23;;;6.35;;
48911;SDS011;34722;52.108;5.044;2023-04-24T23:47:06;26.63;;;7.20;;
48911;SDS011;34722;52.108;5.044;2023-04-24T23:49:32;24.70;;;6.63;;
48911;SDS011;34722;52.108;5.044;2023-04-24T23:55:23;23.85;;;5.68;;
48911;SDS011;34722;52.108;5.044;2023-04-24T23:57:57;35.63;;;8.88;;
